Cape Express — HO5337 — position and weather

sailwx.info

Track history (hours):
 
Tides and Currents Weather Stations Pressure Air Temp Water Temp Dewpoint Dewpoint Depression Visibility Wind Speed Wind Dir Waves Ship Positions

Cape Express

Last reported at 2018-May-20 06:27 UTC. Time now 2018-May-22 17:36 UTC.
Position N 25°60' W 079°43'.

Length 29 m; draft 6.1 m.

Type: Cargo ship. MMSI: 370269000.

Date/timePositionNaut miles runAvg speedWind from/ knotsBaromVisibWave heightAir tempDewpointWater temp
2018-May-20 06:27N 25°60' W 079°43'3 6.7
2018-May-20 06:00N 26°00' W 079°46'3 6.8
2018-May-20 05:30N 26°01' W 079°50'4 7.2
2018-May-20 05:00N 26°02' W 079°54'4 7.1
2018-May-20 04:31N 26°03' W 079°58'3 7.0
2018-May-20 04:01N 26°05' W 080°01'4 8.6
2018-May-20 03:31N 26°06' W 080°06'3 5.3
2018-May-20 03:00N 26°04' W 080°08'0 0.2
2018-May-20 02:30N 26°04' W 080°08'0 0.0
2018-May-20 02:00N 26°04' W 080°08'0 0.0
2018-May-20 01:30N 26°04' W 080°08'0 0.0
2018-May-20 01:00N 26°04' W 080°08'0 0.0
2018-May-20 00:30N 26°04' W 080°08'0 0.0
2018-May-20 00:01N 26°04' W 080°08'0 0.0
2018-May-19 23:30N 26°04' W 080°08'0 0.0
2018-May-19 23:00N 26°04' W 080°08'0 0.0
2018-May-19 22:30N 26°04' W 080°08'0 0.1
2018-May-19 22:00N 26°04' W 080°08'2 4.9
2018-May-19 21:31N 26°06' W 080°06'5 9.6
2018-May-19 21:00N 26°04' W 080°01'511.0
2018-May-19 20:30N 26°01' W 079°56'611.2
2018-May-19 20:01N 25°58' W 079°51'610.9
2018-May-19 19:30N 25°56' W 079°45'10 1.1
2018-May-19 10:18N 25°51' W 079°35'2 7.5
2018-May-19 10:00N 25°52' W 079°38'4 7.6
2018-May-19 09:30N 25°54' W 079°41'4 7.4
2018-May-19 09:00N 25°55' W 079°45'3 7.0
2018-May-19 08:30N 25°57' W 079°49'3 6.6
2018-May-19 08:00N 25°58' W 079°52'3 6.4
2018-May-19 07:31N 26°00' W 079°55'3 6.5
2018-May-19 07:00N 26°02' W 079°58'4 7.2
2018-May-19 06:30N 26°04' W 080°01'4 8.9
2018-May-19 06:00N 26°06' W 080°06'3 5.5
2018-May-19 05:31N 26°04' W 080°08'0 0.1
2018-May-19 05:00N 26°04' W 080°08'0 0.0
2018-May-19 04:30N 26°04' W 080°08'0 0.0
2018-May-19 04:01N 26°04' W 080°08'0 0.0
2018-May-19 03:30N 26°04' W 080°08'0 0.0
2018-May-19 03:01N 26°04' W 080°08'0 0.0
2018-May-19 02:30N 26°04' W 080°08'0 0.0
2018-May-19 02:00N 26°04' W 080°08'0 0.0
2018-May-19 01:30N 26°04' W 080°08'1 1.8
2018-May-19 01:00N 26°04' W 080°07'2 4.2
2018-May-19 00:30N 26°05' W 080°05'3 6.0
2018-May-19 00:01N 26°05' W 080°02'5 9.2
2018-May-18 23:30N 26°05' W 079°56'4 8.0
2018-May-18 23:00N 26°05' W 079°52'4 8.1
2018-May-18 22:30N 26°05' W 079°48'4 8.4
2018-May-18 22:00N 26°05' W 079°43'9 0.2
2018-May-16 23:25N 26°05' W 079°32'3 7.9
2018-May-16 22:59N 26°05' W 079°36'4 8.0
2018-May-16 22:30N 26°05' W 079°40'4 8.8
2018-May-16 22:00N 26°04' W 079°45'4 7.5
2018-May-16 21:30N 26°04' W 079°49'4 7.2
2018-May-16 21:01N 26°04' W 079°53'3 6.4
2018-May-16 20:30N 26°06' W 079°57'4 8.2
2018-May-16 20:01N 26°06' W 080°01'5 9.2
2018-May-16 19:31N 26°06' W 080°06'2 4.9
2018-May-16 19:01N 26°04' W 080°08'0 0.1
2018-May-16 18:31N 26°04' W 080°08'0 0.0
2018-May-16 18:00N 26°04' W 080°08'0 0.0
2018-May-16 17:31N 26°04' W 080°08'0 0.0
2018-May-16 17:00N 26°04' W 080°08'0 0.0
2018-May-16 16:31N 26°04' W 080°08'0 0.0
2018-May-16 16:00N 26°04' W 080°08'0 0.0
2018-May-16 15:31N 26°04' W 080°08'0 0.0
2018-May-16 15:00N 26°04' W 080°08'0 0.0
2018-May-16 14:30N 26°04' W 080°08'0 0.4
2018-May-16 14:00N 26°04' W 080°08'3 5.3
2018-May-16 13:30N 26°06' W 080°06'510.3
2018-May-16 13:00N 26°04' W 080°00'510.7
2018-May-16 12:30N 26°03' W 079°54'510.6
2018-May-16 12:00N 26°01' W 079°49'  
2018-May-12 05:14N 25°58' W 079°38'2 7.8
2018-May-12 04:58N 25°59' W 079°40'3 7.7
2018-May-12 04:30N 25°60' W 079°44'4 7.3
2018-May-12 03:59N 26°01' W 079°48'4 7.3
2018-May-12 03:30N 26°02' W 079°52'4 7.2
2018-May-12 03:00N 26°03' W 079°56'4 7.4
2018-May-12 02:31N 26°04' W 079°60'4 8.7
2018-May-12 02:00N 26°05' W 080°04'3 5.8
2018-May-12 01:31N 26°04' W 080°07'1 1.3
2018-May-12 01:01N 26°04' W 080°08'0 0.0
2018-May-12 00:30N 26°04' W 080°08'0 0.0
2018-May-12 00:01N 26°04' W 080°08'0 0.0
2018-May-11 23:31N 26°04' W 080°08'0 0.0
2018-May-11 23:00N 26°04' W 080°08'0 0.0
2018-May-11 22:30N 26°04' W 080°08'0 0.0
2018-May-11 22:00N 26°04' W 080°08'0 0.0
2018-May-11 21:30N 26°04' W 080°08'0 0.0
2018-May-11 21:00N 26°04' W 080°08'0 0.0
2018-May-11 20:30N 26°04' W 080°08'0 0.0
2018-May-11 20:01N 26°04' W 080°08'0 0.0
2018-May-11 19:31N 26°04' W 080°08'0 0.0
2018-May-11 19:00N 26°04' W 080°08'0 0.0
2018-May-11 18:30N 26°04' W 080°08'0 0.0
2018-May-11 18:01N 26°04' W 080°08'0 0.0
2018-May-11 17:31N 26°04' W 080°08'0 0.0
2018-May-11 17:01N 26°04' W 080°08'0 0.0
2018-May-11 16:30N 26°04' W 080°08'0 0.0
2018-May-11 16:01N 26°04' W 080°08'0 0.0
2018-May-11 15:31N 26°04' W 080°08'0 0.0
2018-May-11 15:00N 26°04' W 080°08'0 0.0
2018-May-11 14:31N 26°04' W 080°08'0 0.0
2018-May-11 14:01N 26°04' W 080°08'0 0.0
2018-May-11 13:30N 26°04' W 080°08'0 0.0
2018-May-11 13:00N 26°04' W 080°08'0 0.0
2018-May-11 12:31N 26°04' W 080°08'0 0.0
2018-May-11 12:00N 26°04' W 080°08'1 1.6
2018-May-11 11:31N 26°04' W 080°07'3 6.1
2018-May-11 11:00N 26°05' W 080°04'510.0
2018-May-11 10:30N 26°02' W 079°59'2 4.1
2018-May-11 10:00N 26°01' W 079°57'2 4.0
2018-May-11 09:30N 26°00' W 079°55'2 4.0
2018-May-11 08:59N 25°59' W 079°53'2 3.6
2018-May-11 08:30N 25°58' W 079°52'2 3.9
2018-May-11 08:00N 25°58' W 079°50'2 3.8
2018-May-11 07:30N 25°57' W 079°48'2 3.7
2018-May-11 07:00N 25°56' W 079°46'2 3.8
2018-May-11 06:30N 25°55' W 079°44'2 4.3
2018-May-11 06:00N 25°54' W 079°42'2 4.6
2018-May-11 05:30N 25°53' W 079°40'7 0.3
2018-May-10 09:08N 25°46' W 079°38'1 7.4
2018-May-10 09:00N 25°47' W 079°39'3 6.9
2018-May-10 08:31N 25°49' W 079°41'3 6.6
2018-May-10 08:00N 25°52' W 079°44'3 6.5
2018-May-10 07:30N 25°53' W 079°47'3 6.3
2018-May-10 07:01N 25°55' W 079°50'3 6.1
2018-May-10 06:31N 25°57' W 079°53'  
Track history (hours):
 
Tides and Currents Weather Stations Pressure Air Temp Water Temp Dewpoint Dewpoint Depression Visibility Wind Speed Wind Dir Waves Ship Positions

Cape Express

Last reported at 2018-May-20 06:27 UTC. Time now 2018-May-22 17:36 UTC.
Position N 25°60' W 079°43'.

Length 29 m; draft 6.1 m.

Type: Cargo ship. MMSI: 370269000.

Date/timePositionNaut miles runAvg speedWind from/ knotsBaromVisibWave heightAir tempDewpointWater temp
2018-May-20 06:27N 25°60' W 079°43'3 6.7
2018-May-20 06:00N 26°00' W 079°46'3 6.8
2018-May-20 05:30N 26°01' W 079°50'4 7.2
2018-May-20 05:00N 26°02' W 079°54'4 7.1
2018-May-20 04:31N 26°03' W 079°58'3 7.0
2018-May-20 04:01N 26°05' W 080°01'4 8.6
2018-May-20 03:31N 26°06' W 080°06'3 5.3
2018-May-20 03:00N 26°04' W 080°08'0 0.2
2018-May-20 02:30N 26°04' W 080°08'0 0.0
2018-May-20 02:00N 26°04' W 080°08'0 0.0
2018-May-20 01:30N 26°04' W 080°08'0 0.0
2018-May-20 01:00N 26°04' W 080°08'0 0.0
2018-May-20 00:30N 26°04' W 080°08'0 0.0
2018-May-20 00:01N 26°04' W 080°08'0 0.0
2018-May-19 23:30N 26°04' W 080°08'0 0.0
2018-May-19 23:00N 26°04' W 080°08'0 0.0
2018-May-19 22:30N 26°04' W 080°08'0 0.1
2018-May-19 22:00N 26°04' W 080°08'2 4.9
2018-May-19 21:31N 26°06' W 080°06'5 9.6
2018-May-19 21:00N 26°04' W 080°01'511.0
2018-May-19 20:30N 26°01' W 079°56'611.2
2018-May-19 20:01N 25°58' W 079°51'610.9
2018-May-19 19:30N 25°56' W 079°45'10 1.1
2018-May-19 10:18N 25°51' W 079°35'2 7.5
2018-May-19 10:00N 25°52' W 079°38'4 7.6
2018-May-19 09:30N 25°54' W 079°41'4 7.4
2018-May-19 09:00N 25°55' W 079°45'3 7.0
2018-May-19 08:30N 25°57' W 079°49'3 6.6
2018-May-19 08:00N 25°58' W 079°52'3 6.4
2018-May-19 07:31N 26°00' W 079°55'3 6.5
2018-May-19 07:00N 26°02' W 079°58'4 7.2
2018-May-19 06:30N 26°04' W 080°01'4 8.9
2018-May-19 06:00N 26°06' W 080°06'3 5.5
2018-May-19 05:31N 26°04' W 080°08'0 0.1
2018-May-19 05:00N 26°04' W 080°08'0 0.0
2018-May-19 04:30N 26°04' W 080°08'0 0.0
2018-May-19 04:01N 26°04' W 080°08'0 0.0
2018-May-19 03:30N 26°04' W 080°08'0 0.0
2018-May-19 03:01N 26°04' W 080°08'0 0.0
2018-May-19 02:30N 26°04' W 080°08'0 0.0
2018-May-19 02:00N 26°04' W 080°08'0 0.0
2018-May-19 01:30N 26°04' W 080°08'1 1.8
2018-May-19 01:00N 26°04' W 080°07'2 4.2
2018-May-19 00:30N 26°05' W 080°05'3 6.0
2018-May-19 00:01N 26°05' W 080°02'5 9.2
2018-May-18 23:30N 26°05' W 079°56'4 8.0
2018-May-18 23:00N 26°05' W 079°52'4 8.1
2018-May-18 22:30N 26°05' W 079°48'4 8.4
2018-May-18 22:00N 26°05' W 079°43'9 0.2
2018-May-16 23:25N 26°05' W 079°32'3 7.9
2018-May-16 22:59N 26°05' W 079°36'4 8.0
2018-May-16 22:30N 26°05' W 079°40'4 8.8
2018-May-16 22:00N 26°04' W 079°45'4 7.5
2018-May-16 21:30N 26°04' W 079°49'4 7.2
2018-May-16 21:01N 26°04' W 079°53'3 6.4
2018-May-16 20:30N 26°06' W 079°57'4 8.2
2018-May-16 20:01N 26°06' W 080°01'5 9.2
2018-May-16 19:31N 26°06' W 080°06'2 4.9
2018-May-16 19:01N 26°04' W 080°08'0 0.1
2018-May-16 18:31N 26°04' W 080°08'0 0.0
2018-May-16 18:00N 26°04' W 080°08'0 0.0
2018-May-16 17:31N 26°04' W 080°08'0 0.0
2018-May-16 17:00N 26°04' W 080°08'0 0.0
2018-May-16 16:31N 26°04' W 080°08'0 0.0
2018-May-16 16:00N 26°04' W 080°08'0 0.0
2018-May-16 15:31N 26°04' W 080°08'0 0.0
2018-May-16 15:00N 26°04' W 080°08'0 0.0
2018-May-16 14:30N 26°04' W 080°08'0 0.4
2018-May-16 14:00N 26°04' W 080°08'3 5.3
2018-May-16 13:30N 26°06' W 080°06'510.3
2018-May-16 13:00N 26°04' W 080°00'510.7
2018-May-16 12:30N 26°03' W 079°54'510.6
2018-May-16 12:00N 26°01' W 079°49'  
2018-May-12 05:14N 25°58' W 079°38'2 7.8
2018-May-12 04:58N 25°59' W 079°40'3 7.7
2018-May-12 04:30N 25°60' W 079°44'4 7.3
2018-May-12 03:59N 26°01' W 079°48'4 7.3
2018-May-12 03:30N 26°02' W 079°52'4 7.2
2018-May-12 03:00N 26°03' W 079°56'4 7.4
2018-May-12 02:31N 26°04' W 079°60'4 8.7
2018-May-12 02:00N 26°05' W 080°04'3 5.8
2018-May-12 01:31N 26°04' W 080°07'1 1.3
2018-May-12 01:01N 26°04' W 080°08'0 0.0
2018-May-12 00:30N 26°04' W 080°08'0 0.0
2018-May-12 00:01N 26°04' W 080°08'0 0.0
2018-May-11 23:31N 26°04' W 080°08'0 0.0
2018-May-11 23:00N 26°04' W 080°08'0 0.0
2018-May-11 22:30N 26°04' W 080°08'0 0.0
2018-May-11 22:00N 26°04' W 080°08'0 0.0
2018-May-11 21:30N 26°04' W 080°08'0 0.0
2018-May-11 21:00N 26°04' W 080°08'0 0.0
2018-May-11 20:30N 26°04' W 080°08'0 0.0
2018-May-11 20:01N 26°04' W 080°08'0 0.0
2018-May-11 19:31N 26°04' W 080°08'0 0.0
2018-May-11 19:00N 26°04' W 080°08'0 0.0
2018-May-11 18:30N 26°04' W 080°08'0 0.0
2018-May-11 18:01N 26°04' W 080°08'0 0.0
2018-May-11 17:31N 26°04' W 080°08'0 0.0
2018-May-11 17:01N 26°04' W 080°08'0 0.0
2018-May-11 16:30N 26°04' W 080°08'0 0.0
2018-May-11 16:01N 26°04' W 080°08'0 0.0
2018-May-11 15:31N 26°04' W 080°08'0 0.0
2018-May-11 15:00N 26°04' W 080°08'0 0.0
2018-May-11 14:31N 26°04' W 080°08'0 0.0
2018-May-11 14:01N 26°04' W 080°08'0 0.0
2018-May-11 13:30N 26°04' W 080°08'0 0.0
2018-May-11 13:00N 26°04' W 080°08'0 0.0
2018-May-11 12:31N 26°04' W 080°08'0 0.0
2018-May-11 12:00N 26°04' W 080°08'1 1.6
2018-May-11 11:31N 26°04' W 080°07'3 6.1
2018-May-11 11:00N 26°05' W 080°04'510.0
2018-May-11 10:30N 26°02' W 079°59'2 4.1
2018-May-11 10:00N 26°01' W 079°57'2 4.0
2018-May-11 09:30N 26°00' W 079°55'2 4.0
2018-May-11 08:59N 25°59' W 079°53'2 3.6
2018-May-11 08:30N 25°58' W 079°52'2 3.9
2018-May-11 08:00N 25°58' W 079°50'2 3.8
2018-May-11 07:30N 25°57' W 079°48'2 3.7
2018-May-11 07:00N 25°56' W 079°46'2 3.8
2018-May-11 06:30N 25°55' W 079°44'2 4.3
2018-May-11 06:00N 25°54' W 079°42'2 4.6
2018-May-11 05:30N 25°53' W 079°40'7 0.3
2018-May-10 09:08N 25°46' W 079°38'1 7.4
2018-May-10 09:00N 25°47' W 079°39'3 6.9
2018-May-10 08:31N 25°49' W 079°41'3 6.6
2018-May-10 08:00N 25°52' W 079°44'3 6.5
2018-May-10 07:30N 25°53' W 079°47'3 6.3
2018-May-10 07:01N 25°55' W 079°50'3 6.1
2018-May-10 06:31N 25°57' W 079°53'  

Dump ship's entire track history